createdAt,value
2023-03-25T00:00:16.504Z,97328.66
2023-03-25T00:02:45.549Z,97324.16
2023-03-25T00:05:14.765Z,97333.44
2023-03-25T00:07:43.708Z,97337.25
2023-03-25T00:10:12.381Z,97343.56
2023-03-25T00:12:39.480Z,97347.03
2023-03-25T00:15:09.053Z,97341.34
2023-03-25T00:17:36.595Z,97339.78
2023-03-25T00:20:09.562Z,97334.66
2023-03-25T00:22:40.718Z,97340.75
2023-03-25T00:25:17.430Z,97340.88
2023-03-25T00:27:46.853Z,97343.25
2023-03-25T00:30:19.074Z,97339.94
2023-03-25T00:32:49.598Z,97345.34
2023-03-25T00:35:19.129Z,97335.56
2023-03-25T00:37:48.013Z,97342.00
2023-03-25T00:40:14.561Z,97330.50
2023-03-25T00:42:44.703Z,97330.66
2023-03-25T00:45:12.471Z,97342.56
2023-03-25T00:47:39.021Z,97330.41
2023-03-25T00:50:06.449Z,97331.38
2023-03-25T00:52:32.979Z,97335.41
2023-03-25T00:54:59.494Z,97340.09
2023-03-25T00:57:26.043Z,97338.34
2023-03-25T00:59:52.514Z,97340.25
2023-03-25T01:02:21.289Z,97340.03
2023-03-25T01:04:49.597Z,97345.28
2023-03-25T01:07:20.292Z,97338.25
2023-03-25T01:09:48.666Z,97323.84
2023-03-25T01:12:16.933Z,97323.25
2023-03-25T01:14:43.496Z,97321.16
2023-03-25T01:17:11.092Z,97310.78
2023-03-25T01:19:37.590Z,97317.72
2023-03-25T01:22:05.263Z,97315.81
2023-03-25T01:24:32.156Z,97313.31
2023-03-25T01:26:58.750Z,97304.72
2023-03-25T01:29:25.286Z,97309.06
2023-03-25T01:31:53.519Z,97299.41
2023-03-25T01:34:20.342Z,97295.66
2023-03-25T01:36:47.068Z,97298.66
2023-03-25T01:39:17.089Z,97296.13
2023-03-25T01:41:50.174Z,97292.78
2023-03-25T01:44:20.502Z,97289.69
2023-03-25T01:46:49.108Z,97290.72
2023-03-25T01:49:38.748Z,97295.06
2023-03-25T01:52:21.236Z,97291.63
2023-03-25T01:54:52.035Z,97290.09
2023-03-25T01:57:23.120Z,97291.31
2023-03-25T01:59:53.611Z,97289.72
2023-03-25T02:02:22.198Z,97286.66
2023-03-25T02:05:07.451Z,97289.50
2023-03-25T02:07:39.167Z,97285.31
2023-03-25T02:10:09.515Z,97289.59
2023-03-25T02:12:36.298Z,97285.28
2023-03-25T02:15:07.457Z,97290.16
2023-03-25T02:17:48.458Z,97300.66
2023-03-25T02:20:58.103Z,97299.59
2023-03-25T02:23:28.394Z,97302.22
2023-03-25T02:26:24.053Z,97300.31
2023-03-25T02:29:02.471Z,97292.34
2023-03-25T02:32:23.681Z,97288.69
2023-03-25T02:35:29.975Z,97284.34
2023-03-25T02:38:17.149Z,97288.91
2023-03-25T02:40:52.103Z,97293.59
2023-03-25T02:43:40.389Z,97284.03
2023-03-25T02:46:15.819Z,97277.09
2023-03-25T02:49:08.614Z,97275.28
2023-03-25T02:51:46.053Z,97273.38
2023-03-25T02:54:16.875Z,97274.94
2023-03-25T02:56:48.358Z,97274.31
2023-03-25T02:59:16.917Z,97260.59
2023-03-25T03:01:44.762Z,97261.88
2023-03-25T03:04:11.315Z,97263.44
2023-03-25T03:06:43.497Z,97264.25
2023-03-25T03:09:52.019Z,97257.34
2023-03-25T03:13:04.790Z,97253.66
2023-03-25T03:15:54.979Z,97248.06
2023-03-25T03:19:02.352Z,97246.13
2023-03-25T03:22:03.741Z,97249.97
2023-03-25T03:24:40.476Z,97250.22
2023-03-25T03:27:34.855Z,97259.78
2023-03-25T03:30:27.192Z,97260.34
2023-03-25T03:33:09.991Z,97251.97
2023-03-25T03:35:50.308Z,97251.63
2023-03-25T03:38:23.145Z,97247.09
2023-03-25T03:40:59.637Z,97247.09
2023-03-25T03:43:37.601Z,97246.66
2023-03-25T03:46:13.492Z,97235.66
2023-03-25T03:48:55.174Z,97247.88
2023-03-25T03:51:30.672Z,97249.75
2023-03-25T03:54:05.708Z,97250.41
2023-03-25T03:56:46.481Z,97267.91
2023-03-25T03:59:25.322Z,97264.13
2023-03-25T04:01:59.667Z,97281.16
2023-03-25T04:04:26.955Z,97290.22
2023-03-25T04:07:19.463Z,97296.03
2023-03-25T04:10:03.665Z,97295.63
2023-03-25T04:12:37.558Z,97299.19
2023-03-25T04:15:06.833Z,97292.03
2023-03-25T04:17:33.514Z,97290.16
2023-03-25T04:20:01.548Z,97301.09
2023-03-25T04:22:28.091Z,97295.22
2023-03-25T04:24:56.079Z,97297.81
2023-03-25T04:27:29.800Z,97297.94
2023-03-25T04:29:57.610Z,97299.38
2023-03-25T04:32:27.678Z,97306.97
2023-03-25T04:34:57.910Z,97300.66
2023-03-25T04:37:28.701Z,97296.84
2023-03-25T04:39:56.097Z,97304.63
2023-03-25T04:42:25.774Z,97301.72
2023-03-25T04:44:52.953Z,97300.50
2023-03-25T04:47:24.543Z,97304.25
2023-03-25T04:49:51.430Z,97300.31
2023-03-25T04:52:17.923Z,97305.56
2023-03-25T04:54:47.167Z,97302.22
2023-03-25T04:57:13.632Z,97302.94
2023-03-25T04:59:40.151Z,97308.66
2023-03-25T05:02:07.677Z,97299.84
2023-03-25T05:04:34.477Z,97303.44
2023-03-25T05:07:01.092Z,97304.88
2023-03-25T05:09:29.540Z,97305.31
2023-03-25T05:11:56.330Z,97305.06
2023-03-25T05:14:22.864Z,97305.75
2023-03-25T05:16:50.097Z,97305.56
2023-03-25T05:19:18.854Z,97309.16
2023-03-25T05:21:45.581Z,97310.09
2023-03-25T05:24:13.712Z,97305.56
2023-03-25T05:26:42.372Z,97312.94
2023-03-25T05:29:15.219Z,97309.91
2023-03-25T05:31:45.325Z,97320.25
2023-03-25T05:34:14.422Z,97318.81
2023-03-25T05:36:41.725Z,97329.66
2023-03-25T05:39:08.728Z,97323.91
2023-03-25T05:41:39.091Z,97320.34
2023-03-25T05:44:07.953Z,97317.47
2023-03-25T05:46:34.817Z,97329.66
2023-03-25T05:49:01.835Z,97323.31
2023-03-25T05:51:38.496Z,97314.59
2023-03-25T05:54:10.781Z,97321.84
2023-03-25T05:56:38.254Z,97321.22
2023-03-25T05:59:04.836Z,97330.59
2023-03-25T06:01:34.127Z,97332.41
2023-03-25T06:04:04.058Z,97328.25
2023-03-25T06:06:34.017Z,97333.22
2023-03-25T06:09:02.260Z,97325.00
2023-03-25T06:11:29.272Z,97329.91
2023-03-25T06:13:56.111Z,97333.22
2023-03-25T06:16:29.849Z,97327.16
2023-03-25T06:18:59.688Z,97332.41
2023-03-25T06:21:30.343Z,97335.91
2023-03-25T06:23:59.555Z,97327.31
2023-03-25T06:26:26.609Z,97331.81
2023-03-25T06:28:53.439Z,97328.50
2023-03-25T06:31:33.101Z,97325.16
2023-03-25T06:33:59.635Z,97319.66
2023-03-25T06:36:26.139Z,97324.44
2023-03-25T06:38:54.041Z,97323.34
2023-03-25T06:41:21.936Z,97317.00
2023-03-25T06:43:49.258Z,97320.06
2023-03-25T06:46:19.616Z,97315.91
2023-03-25T06:48:46.077Z,97321.03
2023-03-25T06:51:12.681Z,97316.75
2023-03-25T06:53:39.204Z,97316.50
2023-03-25T06:56:06.329Z,97312.88
2023-03-25T06:58:35.152Z,97312.69
2023-03-25T07:01:07.047Z,97321.75
2023-03-25T07:03:36.634Z,97304.75
2023-03-25T07:06:05.007Z,97308.56
2023-03-25T07:08:32.261Z,97303.59
2023-03-25T07:11:04.333Z,97305.53
2023-03-25T07:13:31.292Z,97306.94
2023-03-25T07:15:58.667Z,97299.28
2023-03-25T07:18:25.890Z,97290.03
2023-03-25T07:20:52.934Z,97291.56
2023-03-25T07:23:19.452Z,97298.25
2023-03-25T07:25:46.226Z,97292.97
2023-03-25T07:28:13.128Z,97296.25
2023-03-25T07:30:39.858Z,97293.56
2023-03-25T07:33:06.555Z,97288.50
2023-03-25T07:35:33.007Z,97297.41
2023-03-25T07:37:59.664Z,97299.72
2023-03-25T07:40:26.240Z,97306.41
2023-03-25T07:42:52.783Z,97310.75
2023-03-25T07:45:19.330Z,97318.41
2023-03-25T07:47:50.251Z,97318.41
2023-03-25T07:50:25.082Z,97312.78
2023-03-25T07:52:53.361Z,97316.06
2023-03-25T07:55:20.135Z,97329.72
2023-03-25T07:57:47.310Z,97324.84
2023-03-25T08:00:14.313Z,97336.28
2023-03-25T08:02:41.706Z,97343.25
2023-03-25T08:05:09.342Z,97368.91
2023-03-25T08:07:36.000Z,97361.38
2023-03-25T08:10:02.622Z,97386.00
2023-03-25T08:12:29.149Z,97376.34
2023-03-25T08:14:57.935Z,97408.53
2023-03-25T08:17:24.530Z,97388.91
2023-03-25T08:19:51.043Z,97351.31
2023-03-25T08:22:17.562Z,97375.91
2023-03-25T08:24:44.013Z,97395.59
2023-03-25T08:27:15.587Z,97402.31
2023-03-25T08:29:44.466Z,97405.59
2023-03-25T08:32:11.256Z,97382.50
2023-03-25T08:34:39.945Z,97391.69
2023-03-25T08:37:09.924Z,97402.22
2023-03-25T08:39:39.520Z,97399.19
2023-03-25T08:42:08.085Z,97404.22
2023-03-25T08:44:35.648Z,97402.75
2023-03-25T08:47:02.678Z,97405.22
2023-03-25T08:49:29.225Z,97397.19
2023-03-25T08:51:57.896Z,97398.81
2023-03-25T08:54:25.998Z,97396.66
2023-03-25T08:56:52.774Z,97392.34
2023-03-25T08:59:19.930Z,97388.44
2023-03-25T09:01:46.674Z,97394.00
2023-03-25T09:04:13.482Z,97387.69
2023-03-25T09:06:47.490Z,97386.47
2023-03-25T09:09:16.950Z,97385.47
2023-03-25T09:11:44.086Z,97379.44
2023-03-25T09:14:11.025Z,97386.81
2023-03-25T09:16:37.614Z,97379.03
2023-03-25T09:19:04.347Z,97391.81
2023-03-25T09:21:31.035Z,97387.88
2023-03-25T09:23:57.584Z,97389.66
2023-03-25T09:26:26.074Z,97397.38
2023-03-25T09:28:55.339Z,97398.59
2023-03-25T09:31:23.523Z,97395.50
2023-03-25T09:33:50.348Z,97389.13
2023-03-25T09:36:16.899Z,97402.88
2023-03-25T09:38:43.451Z,97393.97
2023-03-25T09:41:46.387Z,97380.38
2023-03-25T09:44:40.581Z,97386.59
2023-03-25T09:47:14.953Z,97388.78
2023-03-25T09:49:53.414Z,97383.63
2023-03-25T09:52:34.922Z,97381.66
2023-03-25T09:55:10.243Z,97391.22
2023-03-25T09:57:49.102Z,97404.56
2023-03-25T10:00:24.581Z,97387.44
2023-03-25T10:03:55.365Z,97392.59
2023-03-25T10:06:26.109Z,97392.16
2023-03-25T10:09:23.182Z,97388.94
2023-03-25T10:12:07.677Z,97386.16
2023-03-25T10:15:26.163Z,97373.25
2023-03-25T10:18:23.203Z,97377.06
2023-03-25T10:21:08.520Z,97372.50
2023-03-25T10:23:58.384Z,97378.59
2023-03-25T10:26:40.759Z,97387.97
2023-03-25T10:29:16.148Z,97387.00
2023-03-25T10:31:53.690Z,97404.22
2023-03-25T10:34:34.977Z,97393.19
2023-03-25T10:37:10.254Z,97395.56
2023-03-25T10:39:39.983Z,97384.69
2023-03-25T10:42:31.508Z,97389.81
2023-03-25T10:44:58.146Z,97397.75
2023-03-25T10:47:31.045Z,97389.75
2023-03-25T10:50:00.330Z,97378.00
2023-03-25T10:52:27.079Z,97376.63
2023-03-25T10:54:56.344Z,97388.84
2023-03-25T10:57:29.469Z,97386.38
2023-03-25T11:00:04.763Z,97390.25
2023-03-25T11:02:32.215Z,97389.84
2023-03-25T11:05:09.652Z,97385.53
2023-03-25T11:07:41.745Z,97385.53
2023-03-25T11:10:25.550Z,97396.78
2023-03-25T11:12:54.621Z,97397.78
2023-03-25T11:15:25.872Z,97385.81
2023-03-25T11:18:08.267Z,97387.78
2023-03-25T11:20:45.744Z,97388.59
2023-03-25T11:23:30.423Z,97387.34
2023-03-25T11:26:21.559Z,97395.22
2023-03-25T11:28:56.051Z,97388.56
2023-03-25T11:31:26.503Z,97388.22
2023-03-25T11:34:11.873Z,97401.59
2023-03-25T11:36:53.041Z,97393.81
2023-03-25T11:39:30.081Z,97395.94
2023-03-25T11:41:57.700Z,97384.69
2023-03-25T11:44:33.152Z,97395.38
2023-03-25T11:47:08.921Z,97382.47
2023-03-25T11:49:38.941Z,97382.75
2023-03-25T11:52:21.839Z,97393.59
2023-03-25T11:54:52.772Z,97371.53
2023-03-25T11:57:38.742Z,97384.97
2023-03-25T12:00:28.262Z,97381.78
2023-03-25T12:03:13.532Z,97378.63
2023-03-25T12:05:42.090Z,97375.13
2023-03-25T12:08:17.807Z,97385.28
2023-03-25T12:10:57.659Z,97395.09
2023-03-25T12:13:50.385Z,97405.13
2023-03-25T12:16:39.592Z,97397.31
2023-03-25T12:19:12.155Z,97394.13
2023-03-25T12:22:02.761Z,97389.00
2023-03-25T12:25:11.408Z,97377.09
2023-03-25T12:27:56.361Z,97374.97
2023-03-25T12:30:33.527Z,97369.47
2023-03-25T12:33:56.292Z,97364.31
2023-03-25T12:36:51.393Z,97364.84
2023-03-25T12:39:59.104Z,97359.44
2023-03-25T12:43:06.239Z,97355.16
2023-03-25T12:45:39.525Z,97345.84
2023-03-25T12:48:46.231Z,97339.41
2023-03-25T12:51:42.340Z,97333.84
2023-03-25T12:54:26.958Z,97342.13
2023-03-25T12:57:18.354Z,97353.63
2023-03-25T13:00:07.996Z,97380.69
2023-03-25T13:02:53.111Z,97405.19
2023-03-25T13:05:54.272Z,97388.41
2023-03-25T13:08:36.121Z,97375.88
2023-03-25T13:11:22.442Z,97358.78
2023-03-25T13:13:55.945Z,97367.91
2023-03-25T13:16:29.863Z,97351.13
2023-03-25T13:19:14.032Z,97362.78
2023-03-25T13:21:46.405Z,97353.06
2023-03-25T13:24:21.352Z,97340.22
2023-03-25T13:26:52.722Z,97334.34
2023-03-25T13:29:31.641Z,97335.69
2023-03-25T13:32:06.922Z,97343.31
2023-03-25T13:34:55.904Z,97333.72
2023-03-25T13:37:49.372Z,97327.94
2023-03-25T13:40:35.673Z,97331.00
2023-03-25T13:43:36.353Z,97343.03
2023-03-25T13:46:13.024Z,97332.28
2023-03-25T13:49:02.060Z,97350.25
2023-03-25T13:51:29.257Z,97325.38
2023-03-25T13:54:09.777Z,97328.13
2023-03-25T13:57:09.076Z,97321.72
2023-03-25T14:00:25.148Z,97327.66
2023-03-25T14:03:34.107Z,97337.59
2023-03-25T14:06:15.677Z,97347.38
2023-03-25T14:09:17.650Z,97338.41
2023-03-25T14:11:54.256Z,97351.53
2023-03-25T14:14:23.643Z,97322.91
2023-03-25T14:16:59.595Z,97315.75
2023-03-25T14:19:34.903Z,97318.56
2023-03-25T14:22:14.128Z,97314.81
2023-03-25T14:24:41.662Z,97314.31
2023-03-25T14:27:15.299Z,97304.97
2023-03-25T14:29:47.201Z,97330.47
2023-03-25T14:32:16.665Z,97337.84
2023-03-25T14:34:49.906Z,97350.72
2023-03-25T14:37:24.555Z,97349.50
2023-03-25T14:39:51.833Z,97383.97
2023-03-25T14:42:21.351Z,97435.53
2023-03-25T14:44:54.454Z,97472.34
2023-03-25T14:47:31.965Z,97460.28
2023-03-25T14:50:23.335Z,97456.91
2023-03-25T14:52:59.996Z,97474.25
2023-03-25T14:55:28.708Z,97482.53
2023-03-25T14:58:24.705Z,97483.31
2023-03-25T15:01:00.108Z,97459.13
2023-03-25T15:03:44.326Z,97454.53
2023-03-25T15:06:28.684Z,97453.97
2023-03-25T15:08:59.784Z,97447.81
2023-03-25T15:11:37.275Z,97459.25
2023-03-25T15:14:10.688Z,97466.56
2023-03-25T15:16:56.923Z,97453.84
2023-03-25T15:19:23.664Z,97446.78
2023-03-25T15:22:00.280Z,97446.47
2023-03-25T15:24:34.442Z,97446.22
2023-03-25T15:27:28.171Z,97430.41
2023-03-25T15:30:13.734Z,97437.56
2023-03-25T15:33:07.249Z,97415.72
2023-03-25T15:35:45.052Z,97419.66
2023-03-25T15:38:39.194Z,97411.53
2023-03-25T15:41:24.614Z,97417.38
2023-03-25T15:44:29.281Z,97401.31
2023-03-25T15:47:04.684Z,97400.56
2023-03-25T15:50:11.613Z,97412.28
2023-03-25T15:53:25.877Z,97399.19
2023-03-25T15:56:09.139Z,97399.66
2023-03-25T15:58:48.431Z,97403.59
2023-03-25T16:01:26.629Z,97415.53
2023-03-25T16:04:06.724Z,97414.97
2023-03-25T16:06:41.894Z,97411.84
2023-03-25T16:09:19.304Z,97399.00
2023-03-25T16:11:46.623Z,97394.78
2023-03-25T16:14:21.955Z,97392.47
2023-03-25T16:16:54.654Z,97393.28
2023-03-25T16:19:41.550Z,97386.63
2023-03-25T16:22:29.341Z,97395.06
2023-03-25T16:25:01.429Z,97382.59
2023-03-25T16:27:44.646Z,97395.47
2023-03-25T16:30:37.055Z,97387.94
2023-03-25T16:33:10.418Z,97396.81
2023-03-25T16:35:41.398Z,97409.00
2023-03-25T16:38:15.409Z,97450.84
2023-03-25T16:40:43.884Z,97418.75
2023-03-25T16:43:21.867Z,97443.03
2023-03-25T16:45:51.663Z,97426.03
2023-03-25T16:48:34.490Z,97412.59
2023-03-25T16:51:13.591Z,97418.59
2023-03-25T16:53:42.544Z,97414.66
2023-03-25T16:56:09.263Z,97405.09
2023-03-25T16:58:58.095Z,97406.81
2023-03-25T17:01:25.928Z,97415.72
2023-03-25T17:04:05.245Z,97418.81
2023-03-25T17:06:39.125Z,97419.47
2023-03-25T17:09:16.005Z,97414.94
2023-03-25T17:11:45.599Z,97411.94
2023-03-25T17:14:19.948Z,97405.09
2023-03-25T17:16:50.371Z,97402.34
2023-03-25T17:19:19.326Z,97407.44
2023-03-25T17:22:17.621Z,97460.72
2023-03-25T17:24:57.290Z,97459.69
2023-03-25T17:27:40.274Z,97445.09
2023-03-25T17:30:40.513Z,97439.84
2023-03-25T17:33:35.424Z,97440.38
2023-03-25T17:36:08.414Z,97446.28
2023-03-25T17:38:41.250Z,97442.06
2023-03-25T17:41:11.464Z,97439.00
2023-03-25T17:43:48.115Z,97443.13
2023-03-25T17:46:23.232Z,97452.53
2023-03-25T17:48:53.205Z,97461.69
2023-03-25T17:51:21.475Z,97490.81
2023-03-25T17:53:49.288Z,97498.09
2023-03-25T17:56:24.934Z,97503.91
2023-03-25T17:59:07.945Z,97505.72
2023-03-25T18:01:35.811Z,97504.25
2023-03-25T18:04:02.673Z,97490.06
2023-03-25T18:06:29.113Z,97503.66
2023-03-25T18:08:55.713Z,97506.66
2023-03-25T18:11:22.360Z,97509.16
2023-03-25T18:13:49.029Z,97509.16
2023-03-25T18:16:21.202Z,97521.59
2023-03-25T18:18:48.724Z,97539.50
2023-03-25T18:21:17.246Z,97541.41
2023-03-25T18:23:47.421Z,97514.53
2023-03-25T18:26:18.052Z,97517.50
2023-03-25T18:28:46.210Z,97512.03
2023-03-25T18:31:17.156Z,97500.81
2023-03-25T18:33:48.322Z,97513.72
2023-03-25T18:36:15.677Z,97507.97
2023-03-25T18:38:46.056Z,97502.72
2023-03-25T18:41:14.387Z,97503.22
2023-03-25T18:43:42.247Z,97503.66
2023-03-25T18:46:14.197Z,97518.84
2023-03-25T18:48:41.073Z,97535.06
2023-03-25T18:51:14.966Z,97606.00
2023-03-25T18:53:41.875Z,97627.09
2023-03-25T18:56:09.598Z,97622.19
2023-03-25T18:58:36.728Z,97603.91
2023-03-25T19:01:07.498Z,97599.25
2023-03-25T19:03:40.026Z,97567.00
2023-03-25T19:06:12.873Z,97558.63
2023-03-25T19:08:43.224Z,97561.34
2023-03-25T19:11:19.693Z,97578.16
2023-03-25T19:13:48.516Z,97579.28
2023-03-25T19:16:15.084Z,97568.38
2023-03-25T19:18:41.627Z,97574.59
2023-03-25T19:21:08.827Z,97570.38
2023-03-25T19:23:36.283Z,97586.44
2023-03-25T19:26:04.203Z,97585.75
2023-03-25T19:28:30.663Z,97594.97
2023-03-25T19:31:01.197Z,97628.34
2023-03-25T19:33:30.785Z,97618.38
2023-03-25T19:36:01.125Z,97640.94
2023-03-25T19:38:28.597Z,97658.66
2023-03-25T19:41:06.613Z,97659.09
2023-03-25T19:43:33.504Z,97623.56
2023-03-25T19:46:01.000Z,97613.25
2023-03-25T19:48:29.815Z,97605.72
2023-03-25T19:50:57.686Z,97585.47
2023-03-25T19:53:27.125Z,97581.59
2023-03-25T19:55:55.058Z,97589.81
2023-03-25T19:58:22.851Z,97586.09
2023-03-25T20:00:50.431Z,97592.91
2023-03-25T20:03:17.060Z,97584.94
2023-03-25T20:05:43.638Z,97588.91
2023-03-25T20:08:10.616Z,97577.91
2023-03-25T20:10:39.196Z,97583.38
2023-03-25T20:13:06.124Z,97584.50
2023-03-25T20:15:33.261Z,97577.13
2023-03-25T20:18:00.320Z,97565.41
2023-03-25T20:20:27.105Z,97559.69
2023-03-25T20:22:54.114Z,97559.13
2023-03-25T20:25:21.180Z,97551.88
2023-03-25T20:27:47.990Z,97549.59
2023-03-25T20:30:18.458Z,97548.38
2023-03-25T20:32:48.194Z,97545.66
2023-03-25T20:35:17.483Z,97543.34
2023-03-25T20:37:46.982Z,97544.19
2023-03-25T20:40:17.452Z,97555.63
2023-03-25T20:42:48.667Z,97549.25
2023-03-25T20:45:17.757Z,97545.81
2023-03-25T20:47:45.343Z,97546.31
2023-03-25T20:50:16.363Z,97551.81
2023-03-25T20:52:43.695Z,97550.03
2023-03-25T20:55:11.318Z,97559.47
2023-03-25T20:57:39.124Z,97553.81
2023-03-25T21:00:07.851Z,97550.59
2023-03-25T21:02:34.768Z,97560.78
2023-03-25T21:05:03.449Z,97558.28
2023-03-25T21:07:32.023Z,97566.03
2023-03-25T21:09:59.492Z,97561.41
2023-03-25T21:12:36.271Z,97563.13
2023-03-25T21:15:04.622Z,97571.13
2023-03-25T21:17:31.268Z,97572.84
2023-03-25T21:19:58.089Z,97579.16
2023-03-25T21:22:24.769Z,97579.88
2023-03-25T21:24:51.273Z,97576.25
2023-03-25T21:27:17.835Z,97592.59
2023-03-25T21:29:46.073Z,97586.28
2023-03-25T21:32:13.843Z,97585.22
2023-03-25T21:34:40.629Z,97601.19
2023-03-25T21:37:07.144Z,97599.59
2023-03-25T21:39:33.683Z,97593.19
2023-03-25T21:42:00.380Z,97598.81
2023-03-25T21:44:36.963Z,97596.72
2023-03-25T21:47:08.328Z,97599.72
2023-03-25T21:49:34.844Z,97591.84
2023-03-25T21:52:01.715Z,97589.94
2023-03-25T21:54:28.674Z,97594.59
2023-03-25T21:56:55.537Z,97591.84
2023-03-25T21:59:22.732Z,97590.44
2023-03-25T22:01:49.381Z,97603.06
2023-03-25T22:04:17.777Z,97601.28
2023-03-25T22:06:44.333Z,97590.66
2023-03-25T22:09:10.948Z,97595.69
2023-03-25T22:11:37.715Z,97592.06
2023-03-25T22:14:05.542Z,97595.53
2023-03-25T22:16:32.775Z,97587.78
2023-03-25T22:18:59.376Z,97587.50
2023-03-25T22:21:30.697Z,97591.09
2023-03-25T22:24:01.249Z,97584.25
2023-03-25T22:26:30.529Z,97588.94
2023-03-25T22:29:03.397Z,97586.72
2023-03-25T22:31:33.113Z,97581.13
2023-03-25T22:34:03.720Z,97591.63
2023-03-25T22:36:33.201Z,97586.38
2023-03-25T22:39:01.235Z,97584.50
2023-03-25T22:41:28.050Z,97586.84
2023-03-25T22:43:55.825Z,97585.94
2023-03-25T22:46:23.069Z,97596.44
2023-03-25T22:48:50.305Z,97592.09
2023-03-25T22:51:19.604Z,97594.50
2023-03-25T22:53:46.620Z,97593.09
2023-03-25T22:56:13.850Z,97592.38
2023-03-25T22:58:41.127Z,97598.00
2023-03-25T23:01:25.043Z,97600.94
2023-03-25T23:03:53.891Z,97593.69
2023-03-25T23:06:22.246Z,97586.28
2023-03-25T23:08:50.124Z,97600.72
2023-03-25T23:11:21.341Z,97608.38
2023-03-25T23:13:55.605Z,97600.78
2023-03-25T23:16:26.191Z,97602.72
2023-03-25T23:18:53.758Z,97622.59
2023-03-25T23:21:25.378Z,97611.50
2023-03-25T23:23:56.962Z,97622.38
2023-03-25T23:26:40.325Z,97619.16
2023-03-25T23:29:10.298Z,97617.25
2023-03-25T23:31:41.026Z,97619.53
2023-03-25T23:34:14.507Z,97618.03
2023-03-25T23:36:42.057Z,97621.91
2023-03-25T23:39:16.027Z,97623.72
2023-03-25T23:41:43.198Z,97626.94
2023-03-25T23:44:10.615Z,97629.97
2023-03-25T23:46:37.455Z,97633.63
2023-03-25T23:49:04.000Z,97631.63
2023-03-25T23:51:35.110Z,97630.53
2023-03-25T23:54:02.228Z,97625.88
2023-03-25T23:56:30.002Z,97627.81
2023-03-25T23:58:59.183Z,97626.97
